createdAt,value
2019-02-28T00:00:43.191Z,14.70
2019-02-28T00:01:46.029Z,15.50
2019-02-28T00:02:43.076Z,11.80
2019-02-28T00:03:43.032Z,13.90
2019-02-28T00:04:45.134Z,15.80
2019-02-28T00:05:43.023Z,16.40
2019-02-28T00:06:50.062Z,14.50
2019-02-28T00:07:42.988Z,15.20
2019-02-28T00:08:43.010Z,14.90
2019-02-28T00:09:42.968Z,17.40
2019-02-28T00:10:45.002Z,15.90
2019-02-28T00:11:42.946Z,16.60
2019-02-28T00:12:45.279Z,12.60
2019-02-28T00:13:42.924Z,20.10
2019-02-28T00:14:42.950Z,15.00
2019-02-28T00:15:42.915Z,14.60
2019-02-28T00:16:42.964Z,13.70
2019-02-28T00:17:43.711Z,19.30
2019-02-28T00:18:42.980Z,13.50
2019-02-28T00:19:42.856Z,14.90
2019-02-28T00:20:42.918Z,19.20
2019-02-28T00:21:42.836Z,17.50
2019-02-28T00:22:42.901Z,12.60
2019-02-28T00:23:42.813Z,13.20
2019-02-28T00:24:42.915Z,13.10
2019-02-28T00:25:42.791Z,14.20
2019-02-28T00:26:46.318Z,17.80
2019-02-28T00:27:42.770Z,14.20
2019-02-28T00:28:42.840Z,17.60
2019-02-28T00:29:42.751Z,19.40
2019-02-28T00:30:42.752Z,18.00
2019-02-28T00:31:42.741Z,19.00
2019-02-28T00:32:42.771Z,16.60
2019-02-28T00:33:42.704Z,19.40
2019-02-28T00:34:42.785Z,15.80
2019-02-28T00:35:44.695Z,18.00
2019-02-28T00:36:42.729Z,17.20
2019-02-28T00:37:42.662Z,16.80
2019-02-28T00:38:42.709Z,17.10
2019-02-28T00:39:42.639Z,16.20
2019-02-28T00:40:42.729Z,17.50
2019-02-28T00:41:44.317Z,19.90
2019-02-28T00:42:42.635Z,15.80
2019-02-28T00:43:42.596Z,19.30
2019-02-28T00:44:42.648Z,19.00
2019-02-28T00:45:42.574Z,14.90
2019-02-28T00:46:45.024Z,14.50
2019-02-28T00:47:42.552Z,18.40
2019-02-28T00:48:42.572Z,17.00
2019-02-28T00:49:42.529Z,19.30
2019-02-28T00:50:44.634Z,15.30
2019-02-28T00:51:42.522Z,15.10
2019-02-28T00:52:44.547Z,20.00
2019-02-28T00:53:42.491Z,22.20
2019-02-28T00:54:44.344Z,16.40
2019-02-28T00:55:45.873Z,12.60
2019-02-28T00:56:44.503Z,14.30
2019-02-28T00:57:42.443Z,16.40
2019-02-28T00:58:43.463Z,17.80
2019-02-28T00:59:42.421Z,18.80
2019-02-28T01:00:42.449Z,16.20
2019-02-28T01:01:43.122Z,13.60
2019-02-28T01:02:42.463Z,16.10
2019-02-28T01:03:42.376Z,20.70
2019-02-28T01:04:42.477Z,14.80
2019-02-28T01:05:42.357Z,16.40
2019-02-28T01:06:42.541Z,19.60
2019-02-28T01:07:42.333Z,19.00
2019-02-28T01:08:42.404Z,24.00
2019-02-28T01:09:42.316Z,20.00
2019-02-28T01:10:42.416Z,18.20
2019-02-28T01:11:44.780Z,16.20
2019-02-28T01:12:42.327Z,15.60
2019-02-28T01:13:42.271Z,20.10
2019-02-28T01:14:42.346Z,17.40
2019-02-28T01:15:44.906Z,20.60
2019-02-28T01:16:42.284Z,20.60
2019-02-28T01:17:42.226Z,18.30
2019-02-28T01:18:42.268Z,21.40
2019-02-28T01:19:42.366Z,20.40
2019-02-28T01:20:42.279Z,19.50
2019-02-28T01:21:42.195Z,22.80
2019-02-28T01:22:42.194Z,19.60
2019-02-28T01:23:42.163Z,20.50
2019-02-28T01:24:42.210Z,20.20
2019-02-28T01:25:42.142Z,16.40
2019-02-28T01:26:43.371Z,22.30
2019-02-28T01:27:42.120Z,21.90
2019-02-28T01:28:42.132Z,19.60
2019-02-28T01:29:42.097Z,18.70
2019-02-28T01:30:42.144Z,18.70
2019-02-28T01:31:43.265Z,21.70
2019-02-28T01:32:42.160Z,18.90
2019-02-28T01:33:42.051Z,18.90
2019-02-28T01:34:42.069Z,22.30
2019-02-28T01:35:42.032Z,18.30
2019-02-28T01:36:43.141Z,23.60
2019-02-28T01:37:42.011Z,22.80
2019-02-28T01:38:49.059Z,21.50
2019-02-28T01:39:41.988Z,22.30
2019-02-28T01:40:42.007Z,19.90
2019-02-28T01:41:42.247Z,21.60
2019-02-28T01:42:53.935Z,20.80
2019-02-28T01:43:42.947Z,23.20
2019-02-28T01:44:42.960Z,30.90
2019-02-28T01:45:44.211Z,21.90
2019-02-28T01:46:41.946Z,23.30
2019-02-28T01:47:41.915Z,23.10
2019-02-28T01:48:41.959Z,25.50
2019-02-28T01:49:41.885Z,23.50
2019-02-28T01:50:41.974Z,23.80
2019-02-28T01:51:41.863Z,22.00
2019-02-28T01:52:46.009Z,23.90
2019-02-28T01:53:41.836Z,19.40
2019-02-28T01:54:41.899Z,27.10
2019-02-28T01:55:41.818Z,29.00
2019-02-28T01:56:41.911Z,28.40
2019-02-28T01:57:44.130Z,18.00
2019-02-28T01:58:41.823Z,17.50
2019-02-28T01:59:41.775Z,27.30
2019-02-28T02:00:41.836Z,22.40
2019-02-28T02:01:41.752Z,22.20
2019-02-28T02:02:41.779Z,21.60
2019-02-28T02:03:41.824Z,21.70
2019-02-28T02:04:43.154Z,20.60
2019-02-28T02:05:41.706Z,22.20
2019-02-28T02:06:41.775Z,24.80
2019-02-28T02:07:41.699Z,23.80
2019-02-28T02:08:41.791Z,25.80
2019-02-28T02:09:42.620Z,25.20
2019-02-28T02:10:41.699Z,24.10
2019-02-28T02:11:41.642Z,20.20
2019-02-28T02:12:41.747Z,22.00
2019-02-28T02:13:42.017Z,19.30
2019-02-28T02:14:44.891Z,21.00
2019-02-28T02:15:41.598Z,23.00
2019-02-28T02:16:42.034Z,20.70
2019-02-28T02:17:41.593Z,25.20
2019-02-28T02:18:43.348Z,31.00
2019-02-28T02:19:41.556Z,24.00
2019-02-28T02:20:41.562Z,32.10
2019-02-28T02:21:41.534Z,24.80
2019-02-28T02:22:44.517Z,35.30
2019-02-28T02:23:41.512Z,27.40
2019-02-28T02:24:41.589Z,26.70
2019-02-28T02:25:41.491Z,23.70
2019-02-28T02:26:42.362Z,30.70
2019-02-28T02:27:41.497Z,27.40
2019-02-28T02:28:42.539Z,26.60
2019-02-28T02:29:41.449Z,28.20
2019-02-28T02:30:41.529Z,27.60
2019-02-28T02:31:43.526Z,27.20
2019-02-28T02:32:41.473Z,32.30
2019-02-28T02:33:41.409Z,24.70
2019-02-28T02:34:41.453Z,29.00
2019-02-28T02:35:42.612Z,24.00
2019-02-28T02:36:41.467Z,30.50
2019-02-28T02:37:41.378Z,31.60
2019-02-28T02:38:41.832Z,24.70
2019-02-28T02:39:41.343Z,25.30
2019-02-28T02:40:41.391Z,27.70
2019-02-28T02:41:41.322Z,27.40
2019-02-28T02:42:47.438Z,25.30
2019-02-28T02:43:42.300Z,27.90
2019-02-28T02:44:41.316Z,25.30
2019-02-28T02:45:43.479Z,21.50
2019-02-28T02:46:41.331Z,33.70
2019-02-28T02:47:41.286Z,28.60
2019-02-28T02:48:42.325Z,31.10
2019-02-28T02:49:41.235Z,23.90
2019-02-28T02:50:41.255Z,24.40
2019-02-28T02:51:49.154Z,26.20
2019-02-28T02:52:42.212Z,26.00
2019-02-28T02:53:42.015Z,25.90
2019-02-28T02:54:41.177Z,24.10
2019-02-28T02:55:41.188Z,24.60
2019-02-28T02:56:42.173Z,26.70
2019-02-28T02:57:41.244Z,26.00
2019-02-28T02:58:41.135Z,29.60
2019-02-28T02:59:41.218Z,32.90
2019-02-28T03:00:41.115Z,25.80
2019-02-28T03:01:41.126Z,29.90
2019-02-28T03:02:41.112Z,28.20
2019-02-28T03:03:44.251Z,28.00
2019-02-28T03:04:41.069Z,28.20
2019-02-28T03:05:41.153Z,22.10
2019-02-28T03:06:41.053Z,27.40
2019-02-28T03:07:41.097Z,22.40
2019-02-28T03:08:41.028Z,27.70
2019-02-28T03:09:43.772Z,34.10
2019-02-28T03:10:41.006Z,31.60
2019-02-28T03:11:50.001Z,34.30
2019-02-28T03:12:40.998Z,30.00
2019-02-28T03:13:43.624Z,33.20
2019-02-28T03:14:40.963Z,31.00
2019-02-28T03:15:48.513Z,25.20
2019-02-28T03:16:40.948Z,28.30
2019-02-28T03:17:46.503Z,26.80
2019-02-28T03:18:41.919Z,25.30
2019-02-28T03:19:40.946Z,32.50
2019-02-28T03:20:42.326Z,33.80
2019-02-28T03:21:40.959Z,26.50
2019-02-28T03:22:40.882Z,31.90
2019-02-28T03:23:40.931Z,35.00
2019-02-28T03:24:40.856Z,41.00
2019-02-28T03:25:40.883Z,29.60
2019-02-28T03:26:41.853Z,28.70
2019-02-28T03:27:40.899Z,33.90
2019-02-28T03:28:40.826Z,29.80
2019-02-28T03:29:43.736Z,30.10
2019-02-28T03:30:40.804Z,26.00
2019-02-28T03:31:40.821Z,25.90
2019-02-28T03:32:42.708Z,29.00
2019-02-28T03:33:40.880Z,26.50
2019-02-28T03:34:40.744Z,27.00
2019-02-28T03:35:43.738Z,32.70
2019-02-28T03:36:40.734Z,27.20
2019-02-28T03:37:40.757Z,32.60
2019-02-28T03:38:48.188Z,30.40
2019-02-28T03:39:41.691Z,33.70
2019-02-28T03:40:41.268Z,30.80
2019-02-28T03:41:40.682Z,32.20
2019-02-28T03:42:40.762Z,27.30
2019-02-28T03:43:43.822Z,28.60
2019-02-28T03:44:40.705Z,33.20
2019-02-28T03:45:40.631Z,35.70
2019-02-28T03:46:46.329Z,31.00
2019-02-28T03:47:41.603Z,28.30
2019-02-28T03:48:40.668Z,30.30
2019-02-28T03:49:48.548Z,27.20
2019-02-28T03:50:41.570Z,27.50
2019-02-28T03:51:40.671Z,30.10
2019-02-28T03:52:43.957Z,29.50
2019-02-28T03:53:40.607Z,26.80
2019-02-28T03:54:40.537Z,30.30
2019-02-28T03:55:42.625Z,28.00
2019-02-28T03:56:40.508Z,25.30
2019-02-28T03:57:41.626Z,29.70
2019-02-28T03:58:42.900Z,36.80
2019-02-28T03:59:40.501Z,31.00
2019-02-28T04:00:40.461Z,31.50
2019-02-28T04:01:57.026Z,31.20
2019-02-28T04:02:40.444Z,33.90
2019-02-28T04:03:41.499Z,36.20
2019-02-28T04:04:48.444Z,32.10
2019-02-28T04:05:41.404Z,31.20
2019-02-28T04:06:41.045Z,26.80
2019-02-28T04:07:40.395Z,30.50
2019-02-28T04:08:40.494Z,26.50
2019-02-28T04:09:44.026Z,29.00
2019-02-28T04:10:40.371Z,28.00
2019-02-28T04:11:40.340Z,33.40
2019-02-28T04:12:45.065Z,37.70
2019-02-28T04:13:41.337Z,33.80
2019-02-28T04:14:40.400Z,28.20
2019-02-28T04:15:49.796Z,35.90
2019-02-28T04:16:41.287Z,30.10
2019-02-28T04:17:40.319Z,32.00
2019-02-28T04:18:44.881Z,36.10
2019-02-28T04:19:41.361Z,32.30
2019-02-28T04:20:40.249Z,33.10
2019-02-28T04:21:46.261Z,29.80
2019-02-28T04:22:41.224Z,35.50
2019-02-28T04:23:40.295Z,32.40
2019-02-28T04:24:40.205Z,35.40
2019-02-28T04:25:40.269Z,34.90
2019-02-28T04:26:40.186Z,37.90
2019-02-28T04:27:41.807Z,35.70
2019-02-28T04:28:40.183Z,31.00
2019-02-28T04:29:40.195Z,32.90
2019-02-28T04:30:43.774Z,32.40
2019-02-28T04:31:40.211Z,31.40
2019-02-28T04:32:40.115Z,38.30
2019-02-28T04:33:40.153Z,33.00
2019-02-28T04:34:40.099Z,29.10
2019-02-28T04:35:40.133Z,32.90
2019-02-28T04:36:40.072Z,32.80
2019-02-28T04:37:44.811Z,35.00
2019-02-28T04:38:41.062Z,40.30
2019-02-28T04:39:40.060Z,35.30
2019-02-28T04:40:40.038Z,31.80
2019-02-28T04:41:41.116Z,38.50
2019-02-28T04:42:40.006Z,33.60
2019-02-28T04:43:41.616Z,36.40
2019-02-28T04:44:39.983Z,31.90
2019-02-28T04:45:39.998Z,42.10
2019-02-28T04:46:39.962Z,32.80
2019-02-28T04:47:40.528Z,34.30
2019-02-28T04:48:39.994Z,41.50
2019-02-28T04:49:41.987Z,36.80
2019-02-28T04:50:39.923Z,33.90
2019-02-28T04:51:40.944Z,33.80
2019-02-28T04:52:39.902Z,39.50
2019-02-28T04:53:39.951Z,38.30
2019-02-28T04:54:39.893Z,37.70
2019-02-28T04:55:39.966Z,32.40
2019-02-28T04:56:42.239Z,42.50
2019-02-28T04:57:40.904Z,32.00
2019-02-28T04:58:39.834Z,31.50
2019-02-28T04:59:39.922Z,31.30
2019-02-28T05:00:39.814Z,44.60
2019-02-28T05:01:39.903Z,34.40
2019-02-28T05:02:39.792Z,34.90
2019-02-28T05:03:39.815Z,34.80
2019-02-28T05:04:39.784Z,44.60
2019-02-28T05:05:39.828Z,35.20
2019-02-28T05:06:39.747Z,35.40
2019-02-28T05:07:39.845Z,37.10
2019-02-28T05:08:39.807Z,39.10
2019-02-28T05:09:39.783Z,41.80
2019-02-28T05:10:39.704Z,44.10
2019-02-28T05:11:39.770Z,35.70
2019-02-28T05:12:40.830Z,40.80
2019-02-28T05:13:41.182Z,40.00
2019-02-28T05:14:39.675Z,41.20
2019-02-28T05:15:41.088Z,37.50
2019-02-28T05:16:39.640Z,37.30
2019-02-28T05:17:39.709Z,41.60
2019-02-28T05:18:39.616Z,32.30
2019-02-28T05:19:39.647Z,37.10
2019-02-28T05:20:45.124Z,31.30
2019-02-28T05:21:40.664Z,32.10
2019-02-28T05:22:39.573Z,38.40
2019-02-28T05:23:39.642Z,38.90
2019-02-28T05:24:42.668Z,42.90
2019-02-28T05:25:39.554Z,40.10
2019-02-28T05:26:39.533Z,34.00
2019-02-28T05:27:39.569Z,40.80
2019-02-28T05:28:41.218Z,38.30
2019-02-28T05:29:44.815Z,43.60
2019-02-28T05:30:41.484Z,39.60
2019-02-28T05:31:39.495Z,34.80
2019-02-28T05:32:39.471Z,35.90
2019-02-28T05:34:00.531Z,32.20
2019-02-28T05:34:39.446Z,37.30
2019-02-28T05:35:41.469Z,35.60
2019-02-28T05:36:39.431Z,40.40
2019-02-28T05:37:39.432Z,36.70
2019-02-28T05:38:39.406Z,41.60
2019-02-28T05:39:39.477Z,40.70
2019-02-28T05:40:41.359Z,37.30
2019-02-28T05:41:39.460Z,39.80
2019-02-28T05:42:39.363Z,41.40
2019-02-28T05:43:39.370Z,38.40
2019-02-28T05:44:55.045Z,37.60
2019-02-28T05:45:39.333Z,40.50
2019-02-28T05:46:39.391Z,36.50
2019-02-28T05:47:46.167Z,36.50
2019-02-28T05:48:40.327Z,33.90
2019-02-28T05:49:40.684Z,40.90
2019-02-28T05:50:39.317Z,40.20
2019-02-28T05:51:39.265Z,47.60
2019-02-28T05:52:39.330Z,36.90
2019-02-28T05:53:41.346Z,32.00
2019-02-28T05:54:39.273Z,36.90
2019-02-28T05:55:39.221Z,37.70
2019-02-28T05:56:39.259Z,36.70
2019-02-28T05:57:42.906Z,35.80
2019-02-28T05:58:39.268Z,32.80
2019-02-28T05:59:39.192Z,40.90
2019-02-28T06:00:39.242Z,39.70
2019-02-28T06:01:39.157Z,41.40
2019-02-28T06:02:39.196Z,39.30
2019-02-28T06:03:39.137Z,30.10
2019-02-28T06:04:39.240Z,38.50
2019-02-28T06:05:39.152Z,42.70
2019-02-28T06:06:39.121Z,34.10
2019-02-28T06:07:39.092Z,39.20
2019-02-28T06:08:39.939Z,39.00
2019-02-28T06:09:39.088Z,35.00
2019-02-28T06:10:39.165Z,34.00
2019-02-28T06:11:39.052Z,41.80
2019-02-28T06:12:40.461Z,42.50
2019-02-28T06:13:39.059Z,42.80
2019-02-28T06:14:39.103Z,32.90
2019-02-28T06:15:39.011Z,39.10
2019-02-28T06:16:39.088Z,32.80
2019-02-28T06:17:38.998Z,39.40
2019-02-28T06:18:38.997Z,42.20
2019-02-28T06:19:40.177Z,42.10
2019-02-28T06:20:39.014Z,37.90
2019-02-28T06:21:38.944Z,37.20
2019-02-28T06:22:39.946Z,32.30
2019-02-28T06:23:40.808Z,38.40
2019-02-28T06:24:38.935Z,42.00
2019-02-28T06:25:38.914Z,35.10
2019-02-28T06:26:38.950Z,39.60
2019-02-28T06:27:41.794Z,41.10
2019-02-28T06:28:38.962Z,42.30
2019-02-28T06:29:38.858Z,33.30
2019-02-28T06:30:41.386Z,42.70
2019-02-28T06:31:38.836Z,38.30
2019-02-28T06:32:38.889Z,34.10
2019-02-28T06:33:38.816Z,38.10
2019-02-28T06:34:39.416Z,31.10
2019-02-28T06:35:38.806Z,33.30
2019-02-28T06:36:38.815Z,33.70
2019-02-28T06:37:39.192Z,35.50
2019-02-28T06:38:38.829Z,38.70
2019-02-28T06:39:38.766Z,38.60
2019-02-28T06:40:38.769Z,29.30
2019-02-28T06:41:39.977Z,35.60
2019-02-28T06:42:38.751Z,37.00
2019-02-28T06:43:38.707Z,35.40
2019-02-28T06:44:38.766Z,31.50
2019-02-28T06:45:38.700Z,32.30
2019-02-28T06:46:39.860Z,32.90
2019-02-28T06:47:39.087Z,42.30
2019-02-28T06:48:38.690Z,32.50
2019-02-28T06:49:41.890Z,35.90
2019-02-28T06:50:38.735Z,40.70
2019-02-28T06:51:38.623Z,34.40
2019-02-28T06:52:38.719Z,35.80
2019-02-28T06:53:38.602Z,35.30
2019-02-28T06:54:39.919Z,32.10
2019-02-28T06:55:38.597Z,28.10
2019-02-28T06:56:38.642Z,35.60
2019-02-28T06:57:38.555Z,33.60
2019-02-28T06:58:38.656Z,31.10
2019-02-28T06:59:39.046Z,29.30
2019-02-28T07:00:40.648Z,31.00
2019-02-28T07:01:38.515Z,37.30
2019-02-28T07:02:39.605Z,38.00
2019-02-28T07:03:38.907Z,28.70
2019-02-28T07:04:38.493Z,29.40
2019-02-28T07:05:38.483Z,30.90
2019-02-28T07:06:45.983Z,27.70
2019-02-28T07:07:38.450Z,33.00
2019-02-28T07:08:40.466Z,31.70
2019-02-28T07:09:38.425Z,32.50
2019-02-28T07:10:38.463Z,32.40
2019-02-28T07:11:38.405Z,31.60
2019-02-28T07:12:38.445Z,30.10
2019-02-28T07:13:39.823Z,26.90
2019-02-28T07:14:38.459Z,27.30
2019-02-28T07:15:38.380Z,27.20
2019-02-28T07:16:38.370Z,33.00
2019-02-28T07:17:38.339Z,27.00
2019-02-28T07:18:38.385Z,35.30
2019-02-28T07:19:38.317Z,33.70
2019-02-28T07:20:38.428Z,27.90
2019-02-28T07:21:42.829Z,37.80
2019-02-28T07:22:40.157Z,26.50
2019-02-28T07:23:38.292Z,30.20
2019-02-28T07:24:38.328Z,33.90
2019-02-28T07:25:38.265Z,29.90
2019-02-28T07:26:38.337Z,29.70
2019-02-28T07:27:38.229Z,27.80
2019-02-28T07:28:38.270Z,22.30
2019-02-28T07:29:38.214Z,26.20
2019-02-28T07:30:38.293Z,26.70
2019-02-28T07:31:38.192Z,27.50
2019-02-28T07:32:38.276Z,29.10
2019-02-28T07:33:38.164Z,27.40
2019-02-28T07:34:38.187Z,23.70
2019-02-28T07:35:38.158Z,26.20
2019-02-28T07:36:38.201Z,24.60
2019-02-28T07:37:38.120Z,37.10
2019-02-28T07:38:38.214Z,30.80
2019-02-28T07:39:40.433Z,29.10
2019-02-28T07:40:38.262Z,23.70
2019-02-28T07:41:38.077Z,28.30
2019-02-28T07:42:38.630Z,30.80
2019-02-28T07:43:38.057Z,32.60
2019-02-28T07:44:38.153Z,26.30
2019-02-28T07:45:38.038Z,23.20
2019-02-28T07:46:42.274Z,19.90
2019-02-28T07:47:38.014Z,30.70
2019-02-28T07:48:39.102Z,25.60
2019-02-28T07:49:37.990Z,36.10
2019-02-28T07:50:54.988Z,28.20
2019-02-28T07:51:37.984Z,31.60
2019-02-28T07:52:53.587Z,28.80
2019-02-28T07:53:40.962Z,34.50
2019-02-28T07:54:39.974Z,26.50
2019-02-28T07:55:37.923Z,30.90
2019-02-28T07:56:42.709Z,23.80
2019-02-28T07:57:38.899Z,33.80
2019-02-28T07:58:37.952Z,28.60
2019-02-28T07:59:42.238Z,27.30
2019-02-28T08:00:37.958Z,26.60
2019-02-28T08:01:37.876Z,30.30
2019-02-28T08:02:39.212Z,25.80
2019-02-28T08:03:37.849Z,20.60
2019-02-28T08:04:37.908Z,34.10
2019-02-28T08:05:37.818Z,27.90
2019-02-28T08:06:39.338Z,34.90
2019-02-28T08:07:37.799Z,26.80
2019-02-28T08:08:37.812Z,29.50
2019-02-28T08:09:40.661Z,26.80
2019-02-28T08:10:37.819Z,31.90
2019-02-28T08:11:37.767Z,33.60
2019-02-28T08:12:37.834Z,27.50
2019-02-28T08:13:38.625Z,27.60
2019-02-28T08:14:37.745Z,25.30
2019-02-28T08:15:37.720Z,33.20
2019-02-28T08:16:37.796Z,30.50
2019-02-28T08:17:40.609Z,25.90
2019-02-28T08:18:38.695Z,28.00
2019-02-28T08:19:37.664Z,36.70
2019-02-28T08:20:37.686Z,26.00
2019-02-28T08:21:43.955Z,29.80
2019-02-28T08:22:38.630Z,29.00
2019-02-28T08:23:37.745Z,30.30
2019-02-28T08:24:37.610Z,23.50
2019-02-28T08:25:39.718Z,31.60
2019-02-28T08:26:38.618Z,24.40
2019-02-28T08:27:37.629Z,30.50
2019-02-28T08:28:37.569Z,27.20
2019-02-28T08:29:37.643Z,31.70
2019-02-28T08:30:37.540Z,24.10
2019-02-28T08:31:37.555Z,29.20
2019-02-28T08:32:42.733Z,27.20
2019-02-28T08:33:38.597Z,31.60
2019-02-28T08:34:37.509Z,25.10
2019-02-28T08:35:38.502Z,30.60
2019-02-28T08:36:37.475Z,29.90
2019-02-28T08:37:37.577Z,22.30
2019-02-28T08:38:37.455Z,29.10
2019-02-28T08:39:41.195Z,37.30
2019-02-28T08:40:37.431Z,26.80
2019-02-28T08:41:38.442Z,23.60
2019-02-28T08:42:39.691Z,30.30
2019-02-28T08:43:37.432Z,28.40
2019-02-28T08:44:37.385Z,30.30
2019-02-28T08:45:37.445Z,28.00
2019-02-28T08:46:37.362Z,39.00
2019-02-28T08:47:37.389Z,27.90
2019-02-28T08:48:37.342Z,26.20
2019-02-28T08:49:42.285Z,27.80
2019-02-28T08:50:38.326Z,28.30
2019-02-28T08:51:37.384Z,32.30
2019-02-28T08:52:37.601Z,25.00
2019-02-28T08:53:37.400Z,28.90
2019-02-28T08:54:37.272Z,28.90
2019-02-28T08:55:38.298Z,28.70
2019-02-28T08:56:37.256Z,32.20
2019-02-28T08:57:37.354Z,30.10
2019-02-28T08:58:38.378Z,26.50
2019-02-28T08:59:37.337Z,22.70
2019-02-28T09:00:37.816Z,30.00
2019-02-28T09:01:40.013Z,22.20
2019-02-28T09:02:37.502Z,25.00
2019-02-28T09:03:37.267Z,28.00
2019-02-28T09:04:41.272Z,31.70
2019-02-28T09:05:37.292Z,33.30
2019-02-28T09:06:37.918Z,28.90
2019-02-28T09:07:37.249Z,30.40
2019-02-28T09:08:37.191Z,33.90
2019-02-28T09:09:37.218Z,26.70
2019-02-28T09:10:37.555Z,31.50
2019-02-28T09:11:37.123Z,26.90
2019-02-28T09:12:37.092Z,23.30
2019-02-28T09:13:39.943Z,29.70
2019-02-28T09:14:38.052Z,27.60
2019-02-28T09:15:37.180Z,28.30
2019-02-28T09:16:39.721Z,28.60
2019-02-28T09:17:39.141Z,33.40
2019-02-28T09:18:37.014Z,33.00
2019-02-28T09:19:38.117Z,27.30
2019-02-28T09:20:36.986Z,26.60
2019-02-28T09:21:37.999Z,24.20
2019-02-28T09:22:37.002Z,29.70
2019-02-28T09:23:37.718Z,27.50
2019-02-28T09:24:36.948Z,29.40
2019-02-28T09:25:37.002Z,26.90
2019-02-28T09:26:36.921Z,26.60
2019-02-28T09:27:39.028Z,29.40
2019-02-28T09:28:36.919Z,29.40
2019-02-28T09:29:36.927Z,31.00
2019-02-28T09:30:36.877Z,30.10
2019-02-28T09:31:39.078Z,27.50
2019-02-28T09:32:36.871Z,28.00
2019-02-28T09:33:36.885Z,27.90
2019-02-28T09:34:36.836Z,29.70
2019-02-28T09:35:36.868Z,28.10
2019-02-28T09:36:36.812Z,33.90
2019-02-28T09:37:37.879Z,23.60
2019-02-28T09:38:36.807Z,26.90
2019-02-28T09:39:36.896Z,28.30
2019-02-28T09:40:36.775Z,28.80
2019-02-28T09:41:40.152Z,27.40
2019-02-28T09:42:36.747Z,28.80
2019-02-28T09:43:36.852Z,30.60
2019-02-28T09:44:36.722Z,30.80
2019-02-28T09:45:39.885Z,30.10
2019-02-28T09:46:36.708Z,29.80
2019-02-28T09:47:36.746Z,21.70
2019-02-28T09:48:37.095Z,25.70
2019-02-28T09:49:36.758Z,31.40
2019-02-28T09:50:36.658Z,27.10
2019-02-28T09:51:36.774Z,26.80
2019-02-28T09:52:41.234Z,29.20
2019-02-28T09:53:36.713Z,23.50
2019-02-28T09:54:36.614Z,31.00
2019-02-28T09:55:36.702Z,29.10
2019-02-28T09:56:36.592Z,27.40
2019-02-28T09:57:36.607Z,29.30
2019-02-28T09:58:36.591Z,27.40
2019-02-28T09:59:37.811Z,27.20
2019-02-28T10:00:36.550Z,24.70
2019-02-28T10:01:36.634Z,26.10
2019-02-28T10:02:36.527Z,25.70
2019-02-28T10:03:46.511Z,29.90
2019-02-28T10:04:36.510Z,27.60
2019-02-28T10:05:42.190Z,27.70
2019-02-28T10:06:36.482Z,25.90
2019-02-28T10:07:37.497Z,30.20
2019-02-28T10:08:37.898Z,35.80
2019-02-28T10:09:36.484Z,34.50
2019-02-28T10:10:36.444Z,28.80
2019-02-28T10:11:36.498Z,31.30
2019-02-28T10:12:39.431Z,24.90
2019-02-28T10:13:37.466Z,32.20
2019-02-28T10:14:36.405Z,30.50
2019-02-28T10:15:38.735Z,35.10
2019-02-28T10:16:37.378Z,25.20
2019-02-28T10:17:36.438Z,24.40
2019-02-28T10:18:38.921Z,30.80
2019-02-28T10:19:43.882Z,29.40
2019-02-28T10:20:37.336Z,26.60
2019-02-28T10:21:39.457Z,27.50
2019-02-28T10:22:36.319Z,27.80
2019-02-28T10:23:36.411Z,34.40
2019-02-28T10:24:36.293Z,31.80
2019-02-28T10:25:40.408Z,31.10
2019-02-28T10:26:37.269Z,27.30
2019-02-28T10:27:36.300Z,35.10
2019-02-28T10:28:36.262Z,29.60
2019-02-28T10:29:38.447Z,28.50
2019-02-28T10:30:37.233Z,30.10
2019-02-28T10:31:38.467Z,30.20
2019-02-28T10:32:36.205Z,26.00
2019-02-28T10:33:36.275Z,27.10
2019-02-28T10:34:36.183Z,28.60
2019-02-28T10:35:36.779Z,29.20
2019-02-28T10:36:36.161Z,27.80
2019-02-28T10:37:36.165Z,30.20
2019-02-28T10:38:36.156Z,30.20
2019-02-28T10:39:36.178Z,29.00
2019-02-28T10:40:36.116Z,25.80
2019-02-28T10:41:36.195Z,30.60
2019-02-28T10:42:37.085Z,24.70
2019-02-28T10:43:36.135Z,26.50
2019-02-28T10:44:36.075Z,25.10
2019-02-28T10:45:40.901Z,28.20
2019-02-28T10:46:37.049Z,31.90
2019-02-28T10:47:36.131Z,29.90
2019-02-28T10:48:41.855Z,34.30
2019-02-28T10:49:37.017Z,32.40
2019-02-28T10:50:43.011Z,26.10
2019-02-28T10:51:35.996Z,28.90
2019-02-28T10:52:38.010Z,32.60
2019-02-28T10:53:36.281Z,30.20
2019-02-28T10:54:36.005Z,27.50
2019-02-28T10:55:35.959Z,28.70
2019-02-28T10:56:35.989Z,30.10
2019-02-28T10:57:37.225Z,26.30
2019-02-28T10:58:36.006Z,28.00
2019-02-28T10:59:35.921Z,30.10
2019-02-28T11:00:35.917Z,24.70
2019-02-28T11:01:35.885Z,26.30
2019-02-28T11:02:35.926Z,26.30
2019-02-28T11:03:35.864Z,27.50
2019-02-28T11:04:35.972Z,30.20
2019-02-28T11:05:35.842Z,34.10
2019-02-28T11:06:35.851Z,27.70
2019-02-28T11:07:37.893Z,25.80
2019-02-28T11:08:35.865Z,26.80
2019-02-28T11:09:35.814Z,35.70
2019-02-28T11:10:36.350Z,24.40
2019-02-28T11:11:35.780Z,29.20
2019-02-28T11:12:35.792Z,25.00
2019-02-28T11:13:35.755Z,24.90
2019-02-28T11:14:38.786Z,27.50
2019-02-28T11:15:35.733Z,27.60
2019-02-28T11:16:36.152Z,27.80
2019-02-28T11:17:35.711Z,22.30
2019-02-28T11:18:36.515Z,31.20
2019-02-28T11:19:35.701Z,25.10
2019-02-28T11:20:35.745Z,27.80
2019-02-28T11:21:35.665Z,25.80
2019-02-28T11:22:36.501Z,31.50
2019-02-28T11:23:35.649Z,30.00
2019-02-28T11:24:35.698Z,28.70
2019-02-28T11:25:35.710Z,27.70
2019-02-28T11:26:35.682Z,30.40
2019-02-28T11:27:35.601Z,29.20
2019-02-28T11:28:35.695Z,28.80
2019-02-28T11:29:36.390Z,33.00
2019-02-28T11:30:36.184Z,29.30
2019-02-28T11:31:35.561Z,27.40
2019-02-28T11:32:35.621Z,23.90
2019-02-28T11:33:36.431Z,30.90
2019-02-28T11:34:35.562Z,30.70
2019-02-28T11:35:35.516Z,27.60
2019-02-28T11:36:37.595Z,30.30
2019-02-28T11:37:35.486Z,24.10
2019-02-28T11:38:37.505Z,31.60
2019-02-28T11:39:35.485Z,30.00
2019-02-28T11:40:35.470Z,26.90
2019-02-28T11:41:35.443Z,26.00
2019-02-28T11:42:35.484Z,30.50
2019-02-28T11:43:38.458Z,24.00
2019-02-28T11:44:35.537Z,27.40
2019-02-28T11:45:35.397Z,23.60
2019-02-28T11:46:36.626Z,27.40
2019-02-28T11:47:35.377Z,33.00
2019-02-28T11:48:35.422Z,20.90
2019-02-28T11:49:35.368Z,29.20
2019-02-28T11:50:41.177Z,26.50
2019-02-28T11:51:36.327Z,24.40
2019-02-28T11:52:35.349Z,28.50
2019-02-28T11:53:38.991Z,26.60
2019-02-28T11:54:35.395Z,29.70
2019-02-28T11:55:35.289Z,28.90
2019-02-28T11:56:35.378Z,31.00
2019-02-28T11:57:37.676Z,29.40
2019-02-28T11:58:36.311Z,28.40
2019-02-28T11:59:35.256Z,25.50
2019-02-28T12:00:36.529Z,28.70
2019-02-28T12:01:35.227Z,32.00
2019-02-28T12:02:35.315Z,26.30
2019-02-28T12:03:35.659Z,28.40
2019-02-28T12:04:37.502Z,29.60
2019-02-28T12:05:36.176Z,29.20
2019-02-28T12:06:35.240Z,27.20
2019-02-28T12:07:35.676Z,30.00
2019-02-28T12:08:35.254Z,25.60
2019-02-28T12:09:35.149Z,28.10
2019-02-28T12:10:35.165Z,27.80
2019-02-28T12:11:36.505Z,32.90
2019-02-28T12:12:35.177Z,33.70
2019-02-28T12:13:35.092Z,23.70
2019-02-28T12:14:35.121Z,27.90
2019-02-28T12:15:38.111Z,28.90
2019-02-28T12:16:35.314Z,29.00
2019-02-28T12:17:35.052Z,27.00
2019-02-28T12:18:39.469Z,29.30
2019-02-28T12:19:35.041Z,25.20
2019-02-28T12:20:35.035Z,35.20
2019-02-28T12:21:37.603Z,29.80
2019-02-28T12:22:50.623Z,23.80
2019-02-28T12:23:34.981Z,24.40
2019-02-28T12:24:35.087Z,29.60
2019-02-28T12:25:34.959Z,26.20
2019-02-28T12:26:34.967Z,27.30
2019-02-28T12:27:34.936Z,33.20
2019-02-28T12:28:35.261Z,25.60
2019-02-28T12:29:34.936Z,23.70
2019-02-28T12:30:35.017Z,25.00
2019-02-28T12:31:35.638Z,26.80
2019-02-28T12:32:34.914Z,27.20
2019-02-28T12:33:34.871Z,32.00
2019-02-28T12:34:34.955Z,30.80
2019-02-28T12:35:39.944Z,26.30
2019-02-28T12:36:35.858Z,30.10
2019-02-28T12:37:34.826Z,24.60
2019-02-28T12:38:34.848Z,26.40
2019-02-28T12:39:36.353Z,35.10
2019-02-28T12:40:34.862Z,29.50
2019-02-28T12:41:34.788Z,29.80
2019-02-28T12:42:35.369Z,30.20
2019-02-28T12:43:34.762Z,27.50
2019-02-28T12:44:34.815Z,27.00
2019-02-28T12:45:34.743Z,30.20
2019-02-28T12:46:34.796Z,28.30
2019-02-28T12:47:34.715Z,29.80
2019-02-28T12:48:34.816Z,26.00
2019-02-28T12:49:34.711Z,30.10
2019-02-28T12:50:34.723Z,32.40
2019-02-28T12:51:36.550Z,25.40
2019-02-28T12:52:34.735Z,29.50